sensor_id;sensor_type;location;lat;lon;timestamp;P1;P2;P0
65383;PMS5003;51986;52.788;41.368;2023-10-08T00:00:59;30.50;26.00;21.50
65383;PMS5003;51986;52.788;41.368;2023-10-08T00:03:30;31.00;27.00;22.25
65383;PMS5003;51986;52.788;41.368;2023-10-08T00:05:57;31.00;27.00;22.00
65383;PMS5003;51986;52.788;41.368;2023-10-08T00:08:24;31.00;26.00;22.00
65383;PMS5003;51986;52.788;41.368;2023-10-08T00:10:51;31.00;27.00;23.00
65383;PMS5003;51986;52.788;41.368;2023-10-08T00:13:18;31.00;27.00;22.00
65383;PMS5003;51986;52.788;41.368;2023-10-08T00:15:45;32.00;27.00;22.00
65383;PMS5003;51986;52.788;41.368;2023-10-08T00:18:12;31.00;27.00;22.00
65383;PMS5003;51986;52.788;41.368;2023-10-08T00:20:39;31.50;27.00;22.00
65383;PMS5003;51986;52.788;41.368;2023-10-08T00:23:06;31.00;26.25;22.00
65383;PMS5003;51986;52.788;41.368;2023-10-08T00:25:33;30.00;26.00;21.00
65383;PMS5003;51986;52.788;41.368;2023-10-08T00:28:00;29.00;25.50;21.00
65383;PMS5003;51986;52.788;41.368;2023-10-08T00:30:27;30.00;26.00;21.00
65383;PMS5003;51986;52.788;41.368;2023-10-08T00:32:54;29.00;25.50;21.00
65383;PMS5003;51986;52.788;41.368;2023-10-08T00:35:21;29.00;26.00;22.00
65383;PMS5003;51986;52.788;41.368;2023-10-08T00:37:48;30.50;26.00;22.00
65383;PMS5003;51986;52.788;41.368;2023-10-08T00:40:15;30.50;26.00;22.00
65383;PMS5003;51986;52.788;41.368;2023-10-08T00:42:42;32.00;28.00;23.00
65383;PMS5003;51986;52.788;41.368;2023-10-08T00:45:09;31.00;27.00;23.00
65383;PMS5003;51986;52.788;41.368;2023-10-08T00:47:36;31.00;27.00;22.00
65383;PMS5003;51986;52.788;41.368;2023-10-08T00:50:04;30.50;26.00;22.00
65383;PMS5003;51986;52.788;41.368;2023-10-08T00:52:31;30.00;26.00;21.00
65383;PMS5003;51986;52.788;41.368;2023-10-08T00:55:00;29.00;26.00;21.00
65383;PMS5003;51986;52.788;41.368;2023-10-08T00:57:28;28.00;25.00;21.00
65383;PMS5003;51986;52.788;41.368;2023-10-08T00:59:57;31.00;27.00;22.00
65383;PMS5003;51986;52.788;41.368;2023-10-08T01:02:25;30.00;26.00;21.00
65383;PMS5003;51986;52.788;41.368;2023-10-08T01:04:55;31.00;27.00;22.00
65383;PMS5003;51986;52.788;41.368;2023-10-08T01:07:22;31.00;27.00;22.00
65383;PMS5003;51986;52.788;41.368;2023-10-08T01:09:51;31.00;26.00;21.00
65383;PMS5003;51986;52.788;41.368;2023-10-08T01:12:19;31.00;27.00;22.00
65383;PMS5003;51986;52.788;41.368;2023-10-08T01:14:47;31.00;26.00;22.00
65383;PMS5003;51986;52.788;41.368;2023-10-08T01:17:14;32.00;27.00;22.00
65383;PMS5003;51986;52.788;41.368;2023-10-08T01:19:42;30.50;26.50;22.00
65383;PMS5003;51986;52.788;41.368;2023-10-08T01:22:10;30.50;26.00;22.00
65383;PMS5003;51986;52.788;41.368;2023-10-08T01:24:37;31.00;26.00;22.00
65383;PMS5003;51986;52.788;41.368;2023-10-08T01:27:04;30.00;26.00;21.00
65383;PMS5003;51986;52.788;41.368;2023-10-08T01:29:31;31.00;26.75;22.00
65383;PMS5003;51986;52.788;41.368;2023-10-08T01:31:58;31.00;27.00;22.00
65383;PMS5003;51986;52.788;41.368;2023-10-08T01:34:26;31.00;26.00;22.00
65383;PMS5003;51986;52.788;41.368;2023-10-08T01:36:53;31.00;26.75;22.00
65383;PMS5003;51986;52.788;41.368;2023-10-08T01:39:19;31.00;26.00;22.00
65383;PMS5003;51986;52.788;41.368;2023-10-08T01:41:46;31.00;27.00;22.00
65383;PMS5003;51986;52.788;41.368;2023-10-08T01:44:13;31.00;26.50;22.00
65383;PMS5003;51986;52.788;41.368;2023-10-08T01:46:40;31.00;26.00;22.00
65383;PMS5003;51986;52.788;41.368;2023-10-08T01:49:07;31.00;26.50;22.00
65383;PMS5003;51986;52.788;41.368;2023-10-08T01:51:35;31.00;27.00;22.50
65383;PMS5003;51986;52.788;41.368;2023-10-08T01:54:02;32.00;27.00;23.00
65383;PMS5003;51986;52.788;41.368;2023-10-08T01:56:29;31.00;26.00;22.00
65383;PMS5003;51986;52.788;41.368;2023-10-08T01:58:57;30.50;26.00;21.50
65383;PMS5003;51986;52.788;41.368;2023-10-08T02:01:23;30.00;26.00;21.00
65383;PMS5003;51986;52.788;41.368;2023-10-08T02:03:51;30.00;26.00;21.00
65383;PMS5003;51986;52.788;41.368;2023-10-08T02:06:18;29.00;25.00;22.00
65383;PMS5003;51986;52.788;41.368;2023-10-08T02:08:45;30.00;26.75;22.00
65383;PMS5003;51986;52.788;41.368;2023-10-08T02:11:12;31.00;26.00;21.00
65383;PMS5003;51986;52.788;41.368;2023-10-08T02:13:39;31.00;26.25;22.00
65383;PMS5003;51986;52.788;41.368;2023-10-08T02:16:06;31.00;26.50;22.00
65383;PMS5003;51986;52.788;41.368;2023-10-08T02:18:32;32.00;28.00;23.00
65383;PMS5003;51986;52.788;41.368;2023-10-08T02:21:00;32.00;28.00;23.00
65383;PMS5003;51986;52.788;41.368;2023-10-08T02:23:27;31.00;27.00;22.00
65383;PMS5003;51986;52.788;41.368;2023-10-08T02:25:54;31.00;26.00;22.00
65383;PMS5003;51986;52.788;41.368;2023-10-08T02:28:21;31.00;26.50;22.00
65383;PMS5003;51986;52.788;41.368;2023-10-08T02:30:48;31.00;27.00;22.00
65383;PMS5003;51986;52.788;41.368;2023-10-08T02:33:15;32.00;28.00;23.00
65383;PMS5003;51986;52.788;41.368;2023-10-08T02:35:42;32.00;27.00;22.00
65383;PMS5003;51986;52.788;41.368;2023-10-08T02:38:11;32.00;27.00;23.00
65383;PMS5003;51986;52.788;41.368;2023-10-08T02:40:39;31.00;26.00;22.00
65383;PMS5003;51986;52.788;41.368;2023-10-08T02:43:06;30.00;26.00;21.00
65383;PMS5003;51986;52.788;41.368;2023-10-08T02:45:33;31.75;27.00;22.00
65383;PMS5003;51986;52.788;41.368;2023-10-08T02:48:00;31.00;27.00;22.00
65383;PMS5003;51986;52.788;41.368;2023-10-08T02:50:27;31.00;26.00;22.00
65383;PMS5003;51986;52.788;41.368;2023-10-08T02:52:54;31.50;27.50;22.75
65383;PMS5003;51986;52.788;41.368;2023-10-08T02:55:21;32.00;28.00;23.00
65383;PMS5003;51986;52.788;41.368;2023-10-08T02:57:48;31.00;27.00;23.00
65383;PMS5003;51986;52.788;41.368;2023-10-08T03:00:15;31.00;27.00;22.00
65383;PMS5003;51986;52.788;41.368;2023-10-08T03:02:42;31.00;27.00;22.00
65383;PMS5003;51986;52.788;41.368;2023-10-08T03:05:10;31.00;27.00;22.00
65383;PMS5003;51986;52.788;41.368;2023-10-08T03:07:37;30.75;26.25;22.00
65383;PMS5003;51986;52.788;41.368;2023-10-08T03:10:04;30.50;26.00;22.00
65383;PMS5003;51986;52.788;41.368;2023-10-08T03:12:34;31.00;27.00;22.00
65383;PMS5003;51986;52.788;41.368;2023-10-08T03:15:02;31.50;27.00;23.00
65383;PMS5003;51986;52.788;41.368;2023-10-08T03:17:29;31.00;27.00;22.75
65383;PMS5003;51986;52.788;41.368;2023-10-08T03:19:56;32.25;28.00;23.00
65383;PMS5003;51986;52.788;41.368;2023-10-08T03:22:24;31.00;27.00;22.00
65383;PMS5003;51986;52.788;41.368;2023-10-08T03:24:51;32.00;28.00;22.00
65383;PMS5003;51986;52.788;41.368;2023-10-08T03:27:18;32.00;28.00;22.00
65383;PMS5003;51986;52.788;41.368;2023-10-08T03:29:48;31.00;27.00;22.00
65383;PMS5003;51986;52.788;41.368;2023-10-08T03:32:15;30.75;26.75;21.75
65383;PMS5003;51986;52.788;41.368;2023-10-08T03:34:43;31.00;27.00;22.00
65383;PMS5003;51986;52.788;41.368;2023-10-08T03:37:15;31.00;27.00;22.00
65383;PMS5003;51986;52.788;41.368;2023-10-08T03:39:49;31.00;27.00;23.00
65383;PMS5003;51986;52.788;41.368;2023-10-08T03:42:20;31.00;27.00;22.00
65383;PMS5003;51986;52.788;41.368;2023-10-08T03:44:52;30.75;26.75;22.00
65383;PMS5003;51986;52.788;41.368;2023-10-08T03:47:19;31.00;27.00;22.00
65383;PMS5003;51986;52.788;41.368;2023-10-08T03:49:46;31.00;27.00;22.00
65383;PMS5003;51986;52.788;41.368;2023-10-08T03:52:13;30.00;26.00;21.50
65383;PMS5003;51986;52.788;41.368;2023-10-08T03:54:40;31.50;27.00;22.50
65383;PMS5003;51986;52.788;41.368;2023-10-08T03:57:07;32.00;28.00;23.00
65383;PMS5003;51986;52.788;41.368;2023-10-08T03:59:34;32.00;27.00;22.00
65383;PMS5003;51986;52.788;41.368;2023-10-08T04:02:02;31.25;27.00;22.50
65383;PMS5003;51986;52.788;41.368;2023-10-08T04:04:29;32.00;27.00;22.75
65383;PMS5003;51986;52.788;41.368;2023-10-08T04:06:56;31.00;27.00;23.00
65383;PMS5003;51986;52.788;41.368;2023-10-08T04:09:23;30.50;26.00;22.00
65383;PMS5003;51986;52.788;41.368;2023-10-08T04:11:51;31.00;26.00;22.00
65383;PMS5003;51986;52.788;41.368;2023-10-08T04:14:22;32.00;28.00;22.75
65383;PMS5003;51986;52.788;41.368;2023-10-08T04:16:51;31.25;27.25;23.00
65383;PMS5003;51986;52.788;41.368;2023-10-08T04:19:19;32.00;28.00;23.00
65383;PMS5003;51986;52.788;41.368;2023-10-08T04:21:47;32.00;27.00;22.00
65383;PMS5003;51986;52.788;41.368;2023-10-08T04:24:14;31.00;27.00;22.00
65383;PMS5003;51986;52.788;41.368;2023-10-08T04:26:41;32.00;28.00;23.00
65383;PMS5003;51986;52.788;41.368;2023-10-08T04:29:08;31.00;27.00;22.00
65383;PMS5003;51986;52.788;41.368;2023-10-08T04:31:35;32.00;27.50;22.25
65383;PMS5003;51986;52.788;41.368;2023-10-08T04:34:03;31.00;27.00;22.00
65383;PMS5003;51986;52.788;41.368;2023-10-08T04:36:33;31.00;27.00;22.00
65383;PMS5003;51986;52.788;41.368;2023-10-08T04:39:00;31.00;27.00;22.00
65383;PMS5003;51986;52.788;41.368;2023-10-08T04:41:26;31.00;27.00;22.00
65383;PMS5003;51986;52.788;41.368;2023-10-08T04:43:53;31.00;27.00;22.00
65383;PMS5003;51986;52.788;41.368;2023-10-08T04:46:20;31.00;26.00;21.00
65383;PMS5003;51986;52.788;41.368;2023-10-08T04:48:48;31.00;26.50;22.00
65383;PMS5003;51986;52.788;41.368;2023-10-08T04:51:15;30.25;26.25;22.00
65383;PMS5003;51986;52.788;41.368;2023-10-08T04:53:42;31.00;27.00;22.00
65383;PMS5003;51986;52.788;41.368;2023-10-08T04:56:10;31.00;27.00;22.00
65383;PMS5003;51986;52.788;41.368;2023-10-08T04:58:42;31.00;27.00;21.00
65383;PMS5003;51986;52.788;41.368;2023-10-08T05:01:10;31.75;27.75;23.00
65383;PMS5003;51986;52.788;41.368;2023-10-08T05:03:37;32.00;27.00;22.75
65383;PMS5003;51986;52.788;41.368;2023-10-08T05:06:04;31.00;27.00;23.00
65383;PMS5003;51986;52.788;41.368;2023-10-08T05:08:31;32.00;28.00;23.00
65383;PMS5003;51986;52.788;41.368;2023-10-08T05:10:58;31.50;27.00;22.00
65383;PMS5003;51986;52.788;41.368;2023-10-08T05:13:25;31.00;27.00;22.00
65383;PMS5003;51986;52.788;41.368;2023-10-08T05:15:52;31.00;27.00;22.00
65383;PMS5003;51986;52.788;41.368;2023-10-08T05:18:19;30.00;26.00;22.00
65383;PMS5003;51986;52.788;41.368;2023-10-08T05:20:46;31.00;27.00;22.00
65383;PMS5003;51986;52.788;41.368;2023-10-08T05:23:13;31.00;27.00;22.00
65383;PMS5003;51986;52.788;41.368;2023-10-08T05:25:42;31.00;27.00;22.00
65383;PMS5003;51986;52.788;41.368;2023-10-08T05:28:09;31.00;27.00;22.00
65383;PMS5003;51986;52.788;41.368;2023-10-08T05:30:36;31.00;26.25;22.00
65383;PMS5003;51986;52.788;41.368;2023-10-08T05:33:04;30.00;26.00;21.00
65383;PMS5003;51986;52.788;41.368;2023-10-08T05:35:33;30.00;26.00;21.00
65383;PMS5003;51986;52.788;41.368;2023-10-08T05:38:02;30.50;26.00;21.00
65383;PMS5003;51986;52.788;41.368;2023-10-08T05:40:29;30.50;26.00;21.00
65383;PMS5003;51986;52.788;41.368;2023-10-08T05:42:56;31.00;27.00;22.75
65383;PMS5003;51986;52.788;41.368;2023-10-08T05:45:23;31.00;27.00;22.00
65383;PMS5003;51986;52.788;41.368;2023-10-08T05:47:49;30.00;26.00;21.00
65383;PMS5003;51986;52.788;41.368;2023-10-08T05:50:16;30.00;26.00;21.00
65383;PMS5003;51986;52.788;41.368;2023-10-08T05:52:47;30.00;26.00;21.00
65383;PMS5003;51986;52.788;41.368;2023-10-08T05:55:14;29.00;25.00;21.00
65383;PMS5003;51986;52.788;41.368;2023-10-08T05:57:41;30.25;26.00;21.25
65383;PMS5003;51986;52.788;41.368;2023-10-08T06:00:09;31.00;27.00;22.00
65383;PMS5003;51986;52.788;41.368;2023-10-08T06:02:36;31.25;27.00;22.00
65383;PMS5003;51986;52.788;41.368;2023-10-08T06:05:04;30.00;26.00;21.25
65383;PMS5003;51986;52.788;41.368;2023-10-08T06:07:32;30.00;26.00;22.00
65383;PMS5003;51986;52.788;41.368;2023-10-08T06:09:59;31.25;27.25;23.00
65383;PMS5003;51986;52.788;41.368;2023-10-08T06:12:26;32.00;28.00;23.00
65383;PMS5003;51986;52.788;41.368;2023-10-08T06:14:53;32.00;28.00;23.00
65383;PMS5003;51986;52.788;41.368;2023-10-08T06:17:20;31.50;27.50;22.00
65383;PMS5003;51986;52.788;41.368;2023-10-08T06:19:47;31.00;27.00;22.00
65383;PMS5003;51986;52.788;41.368;2023-10-08T06:22:14;31.00;27.00;22.00
65383;PMS5003;51986;52.788;41.368;2023-10-08T06:24:41;31.00;27.00;22.00
65383;PMS5003;51986;52.788;41.368;2023-10-08T06:27:08;31.00;27.00;23.00
65383;PMS5003;51986;52.788;41.368;2023-10-08T06:29:36;31.00;27.00;22.25
65383;PMS5003;51986;52.788;41.368;2023-10-08T06:32:03;33.00;28.00;23.00
65383;PMS5003;51986;52.788;41.368;2023-10-08T06:34:30;33.00;28.00;23.00
65383;PMS5003;51986;52.788;41.368;2023-10-08T06:36:58;33.00;27.00;22.00
65383;PMS5003;51986;52.788;41.368;2023-10-08T06:39:25;33.00;27.00;22.00
65383;PMS5003;51986;52.788;41.368;2023-10-08T06:41:53;31.00;26.25;21.25
65383;PMS5003;51986;52.788;41.368;2023-10-08T06:44:26;31.00;27.00;22.00
65383;PMS5003;51986;52.788;41.368;2023-10-08T06:46:54;31.00;27.00;22.00
65383;PMS5003;51986;52.788;41.368;2023-10-08T06:49:21;31.00;27.00;22.00
65383;PMS5003;51986;52.788;41.368;2023-10-08T06:51:49;32.00;27.00;22.00
65383;PMS5003;51986;52.788;41.368;2023-10-08T06:54:17;32.50;28.50;24.00
65383;PMS5003;51986;52.788;41.368;2023-10-08T06:56:45;32.00;28.00;23.00
65383;PMS5003;51986;52.788;41.368;2023-10-08T06:59:13;31.00;27.00;23.00
65383;PMS5003;51986;52.788;41.368;2023-10-08T07:01:40;31.00;27.00;23.00
65383;PMS5003;51986;52.788;41.368;2023-10-08T07:04:08;31.00;27.00;22.00
65383;PMS5003;51986;52.788;41.368;2023-10-08T07:06:36;31.00;26.00;21.00
65383;PMS5003;51986;52.788;41.368;2023-10-08T07:09:03;32.25;27.25;22.00
65383;PMS5003;51986;52.788;41.368;2023-10-08T07:11:33;33.00;28.00;23.00
65383;PMS5003;51986;52.788;41.368;2023-10-08T07:14:04;33.00;28.00;22.00
65383;PMS5003;51986;52.788;41.368;2023-10-08T07:16:34;33.00;28.00;23.00
65383;PMS5003;51986;52.788;41.368;2023-10-08T07:19:01;32.00;27.00;23.00
65383;PMS5003;51986;52.788;41.368;2023-10-08T07:21:28;32.00;28.00;23.00
65383;PMS5003;51986;52.788;41.368;2023-10-08T07:23:56;31.00;26.50;22.00
65383;PMS5003;51986;52.788;41.368;2023-10-08T07:26:25;31.00;27.00;22.00
65383;PMS5003;51986;52.788;41.368;2023-10-08T07:28:53;32.00;28.00;23.00
65383;PMS5003;51986;52.788;41.368;2023-10-08T07:31:22;31.00;27.00;22.00
65383;PMS5003;51986;52.788;41.368;2023-10-08T07:33:54;30.00;27.00;22.00
65383;PMS5003;51986;52.788;41.368;2023-10-08T07:36:25;30.00;27.00;22.00
65383;PMS5003;51986;52.788;41.368;2023-10-08T07:38:53;31.50;27.00;22.00
65383;PMS5003;51986;52.788;41.368;2023-10-08T07:41:20;33.00;28.00;23.00
65383;PMS5003;51986;52.788;41.368;2023-10-08T07:43:47;32.00;27.00;22.00
65383;PMS5003;51986;52.788;41.368;2023-10-08T07:46:15;33.00;28.00;23.00
65383;PMS5003;51986;52.788;41.368;2023-10-08T07:48:42;31.00;27.00;22.00
65383;PMS5003;51986;52.788;41.368;2023-10-08T07:51:10;32.00;27.50;22.50
65383;PMS5003;51986;52.788;41.368;2023-10-08T07:53:37;33.00;28.00;23.00
65383;PMS5003;51986;52.788;41.368;2023-10-08T07:56:05;33.00;28.00;22.50
65383;PMS5003;51986;52.788;41.368;2023-10-08T07:58:39;32.00;27.00;22.50
65383;PMS5003;51986;52.788;41.368;2023-10-08T08:01:06;32.75;28.00;23.00
65383;PMS5003;51986;52.788;41.368;2023-10-08T08:03:37;34.00;29.00;24.00
65383;PMS5003;51986;52.788;41.368;2023-10-08T08:06:08;33.00;28.00;23.00
65383;PMS5003;51986;52.788;41.368;2023-10-08T08:08:36;32.00;27.00;22.00
65383;PMS5003;51986;52.788;41.368;2023-10-08T08:11:05;32.00;27.00;22.00
65383;PMS5003;51986;52.788;41.368;2023-10-08T08:13:33;34.00;28.00;22.75
65383;PMS5003;51986;52.788;41.368;2023-10-08T08:16:01;35.00;29.00;23.00
65383;PMS5003;51986;52.788;41.368;2023-10-08T08:18:28;35.00;29.00;23.00
65383;PMS5003;51986;52.788;41.368;2023-10-08T08:20:55;34.00;29.00;23.00
65383;PMS5003;51986;52.788;41.368;2023-10-08T08:23:23;33.00;28.00;23.00
65383;PMS5003;51986;52.788;41.368;2023-10-08T08:25:50;32.00;27.00;23.00
65383;PMS5003;51986;52.788;41.368;2023-10-08T08:28:16;33.00;28.00;23.00
65383;PMS5003;51986;52.788;41.368;2023-10-08T08:30:44;33.00;28.00;23.00
65383;PMS5003;51986;52.788;41.368;2023-10-08T08:33:12;32.25;27.50;22.50
65383;PMS5003;51986;52.788;41.368;2023-10-08T08:35:40;33.00;28.00;23.00
65383;PMS5003;51986;52.788;41.368;2023-10-08T08:38:07;33.00;28.00;23.00
65383;PMS5003;51986;52.788;41.368;2023-10-08T08:40:34;32.00;28.00;23.00
65383;PMS5003;51986;52.788;41.368;2023-10-08T08:43:02;31.00;27.00;23.00
65383;PMS5003;51986;52.788;41.368;2023-10-08T08:45:31;31.00;27.00;22.00
65383;PMS5003;51986;52.788;41.368;2023-10-08T08:48:02;33.00;28.00;22.00
65383;PMS5003;51986;52.788;41.368;2023-10-08T08:50:29;34.00;28.00;22.00
65383;PMS5003;51986;52.788;41.368;2023-10-08T08:52:58;33.00;28.00;22.00
65383;PMS5003;51986;52.788;41.368;2023-10-08T08:55:25;33.00;27.00;22.00
65383;PMS5003;51986;52.788;41.368;2023-10-08T08:57:54;32.00;27.00;22.00
65383;PMS5003;51986;52.788;41.368;2023-10-08T09:00:21;31.00;26.00;21.75
65383;PMS5003;51986;52.788;41.368;2023-10-08T09:02:50;31.00;26.00;21.00
65383;PMS5003;51986;52.788;41.368;2023-10-08T09:05:17;31.00;26.00;21.00
65383;PMS5003;51986;52.788;41.368;2023-10-08T09:08:00;30.00;26.00;21.00
65383;PMS5003;51986;52.788;41.368;2023-10-08T09:10:29;30.00;26.00;21.00
65383;PMS5003;51986;52.788;41.368;2023-10-08T09:12:57;31.00;27.00;22.00
65383;PMS5003;51986;52.788;41.368;2023-10-08T09:15:26;30.00;27.00;22.00
65383;PMS5003;51986;52.788;41.368;2023-10-08T09:17:53;31.00;27.00;22.00
65383;PMS5003;51986;52.788;41.368;2023-10-08T09:20:21;31.00;27.00;22.00
65383;PMS5003;51986;52.788;41.368;2023-10-08T09:23:07;31.00;27.00;22.00
65383;PMS5003;51986;52.788;41.368;2023-10-08T09:25:35;32.75;28.00;23.00
65383;PMS5003;51986;52.788;41.368;2023-10-08T09:28:03;33.00;28.00;23.00
65383;PMS5003;51986;52.788;41.368;2023-10-08T09:30:30;33.00;28.00;23.00
65383;PMS5003;51986;52.788;41.368;2023-10-08T09:32:57;34.00;29.00;23.00
65383;PMS5003;51986;52.788;41.368;2023-10-08T09:35:24;32.00;28.00;22.50
65383;PMS5003;51986;52.788;41.368;2023-10-08T09:37:51;31.00;27.00;22.00
65383;PMS5003;51986;52.788;41.368;2023-10-08T09:40:20;32.00;28.00;23.00
65383;PMS5003;51986;52.788;41.368;2023-10-08T09:42:48;33.00;28.00;22.50
65383;PMS5003;51986;52.788;41.368;2023-10-08T09:45:16;32.00;28.00;23.00
65383;PMS5003;51986;52.788;41.368;2023-10-08T09:47:47;31.50;27.00;23.00
65383;PMS5003;51986;52.788;41.368;2023-10-08T09:50:20;32.00;27.00;22.00
65383;PMS5003;51986;52.788;41.368;2023-10-08T09:55:37;32.00;26.50;22.00
65383;PMS5003;51986;52.788;41.368;2023-10-08T09:58:10;31.00;27.00;22.00
65383;PMS5003;51986;52.788;41.368;2023-10-08T10:00:39;32.00;28.00;23.00
65383;PMS5003;51986;52.788;41.368;2023-10-08T10:03:07;31.50;27.50;22.75
65383;PMS5003;51986;52.788;41.368;2023-10-08T10:05:35;32.00;28.00;22.00
65383;PMS5003;51986;52.788;41.368;2023-10-08T10:08:03;31.00;27.00;21.00
65383;PMS5003;51986;52.788;41.368;2023-10-08T10:10:31;31.00;27.00;21.25
65383;PMS5003;51986;52.788;41.368;2023-10-08T10:13:00;31.50;27.00;22.00
65383;PMS5003;51986;52.788;41.368;2023-10-08T10:15:32;31.00;27.00;22.00
65383;PMS5003;51986;52.788;41.368;2023-10-08T10:18:44;31.00;27.00;22.00
65383;PMS5003;51986;52.788;41.368;2023-10-08T10:21:36;31.75;27.75;22.00
65383;PMS5003;51986;52.788;41.368;2023-10-08T10:23:42;31.00;26.00;22.00
65383;PMS5003;51986;52.788;41.368;2023-10-08T10:31:34;31.00;27.00;22.00
65383;PMS5003;51986;52.788;41.368;2023-10-08T10:34:05;31.00;27.00;21.50
65383;PMS5003;51986;52.788;41.368;2023-10-08T10:36:33;31.00;27.00;22.00
65383;PMS5003;51986;52.788;41.368;2023-10-08T10:39:08;31.00;27.00;23.00
65383;PMS5003;51986;52.788;41.368;2023-10-08T10:41:38;31.00;27.00;22.75
65383;PMS5003;51986;52.788;41.368;2023-10-08T10:44:05;31.50;27.25;22.00
65383;PMS5003;51986;52.788;41.368;2023-10-08T10:46:33;33.00;28.00;23.00
65383;PMS5003;51986;52.788;41.368;2023-10-08T10:49:00;32.00;27.00;23.00
65383;PMS5003;51986;52.788;41.368;2023-10-08T10:51:27;31.00;27.00;22.00
65383;PMS5003;51986;52.788;41.368;2023-10-08T10:53:55;32.00;28.00;23.00
65383;PMS5003;51986;52.788;41.368;2023-10-08T10:56:25;32.00;27.00;22.00
65383;PMS5003;51986;52.788;41.368;2023-10-08T10:58:52;31.50;27.00;22.50
65383;PMS5003;51986;52.788;41.368;2023-10-08T11:01:25;31.00;27.00;22.00
65383;PMS5003;51986;52.788;41.368;2023-10-08T11:03:57;32.25;27.00;22.00
65383;PMS5003;51986;52.788;41.368;2023-10-08T11:06:24;33.00;28.00;23.00
65383;PMS5003;51986;52.788;41.368;2023-10-08T11:08:52;33.00;28.00;23.00
65383;PMS5003;51986;52.788;41.368;2023-10-08T11:11:27;32.50;28.00;23.00
65383;PMS5003;51986;52.788;41.368;2023-10-08T11:13:56;33.00;28.00;23.00
65383;PMS5003;51986;52.788;41.368;2023-10-08T11:16:24;33.00;28.00;23.00
65383;PMS5003;51986;52.788;41.368;2023-10-08T11:18:52;34.00;28.00;23.00
65383;PMS5003;51986;52.788;41.368;2023-10-08T11:21:20;34.00;29.00;24.00
65383;PMS5003;51986;52.788;41.368;2023-10-08T11:23:50;33.00;28.00;23.00
65383;PMS5003;51986;52.788;41.368;2023-10-08T11:26:19;33.00;28.00;23.00
65383;PMS5003;51986;52.788;41.368;2023-10-08T11:28:47;33.00;28.00;22.00
65383;PMS5003;51986;52.788;41.368;2023-10-08T11:31:15;32.00;28.00;22.00
65383;PMS5003;51986;52.788;41.368;2023-10-08T11:33:44;32.50;27.50;22.25
65383;PMS5003;51986;52.788;41.368;2023-10-08T11:36:16;32.00;27.00;23.00
65383;PMS5003;51986;52.788;41.368;2023-10-08T11:38:44;32.00;27.00;22.00
65383;PMS5003;51986;52.788;41.368;2023-10-08T11:41:12;32.50;27.50;23.00
65383;PMS5003;51986;52.788;41.368;2023-10-08T11:43:40;33.00;28.00;23.00
65383;PMS5003;51986;52.788;41.368;2023-10-08T11:46:09;31.50;27.00;23.00
65383;PMS5003;51986;52.788;41.368;2023-10-08T11:48:36;31.50;27.25;22.75
65383;PMS5003;51986;52.788;41.368;2023-10-08T11:51:05;33.00;28.00;23.00
65383;PMS5003;51986;52.788;41.368;2023-10-08T11:53:32;32.75;28.00;23.00
65383;PMS5003;51986;52.788;41.368;2023-10-08T11:55:59;32.00;28.00;23.00
65383;PMS5003;51986;52.788;41.368;2023-10-08T11:58:26;32.00;27.50;22.00
65383;PMS5003;51986;52.788;41.368;2023-10-08T12:00:54;32.00;28.00;23.00
65383;PMS5003;51986;52.788;41.368;2023-10-08T12:03:21;32.00;28.00;23.00
65383;PMS5003;51986;52.788;41.368;2023-10-08T12:05:51;31.00;27.00;22.00
65383;PMS5003;51986;52.788;41.368;2023-10-08T12:08:18;33.00;28.00;23.00
65383;PMS5003;51986;52.788;41.368;2023-10-08T12:10:47;32.00;28.00;23.00
65383;PMS5003;51986;52.788;41.368;2023-10-08T12:13:15;32.00;27.00;22.00
65383;PMS5003;51986;52.788;41.368;2023-10-08T12:15:45;31.00;27.00;22.00
65383;PMS5003;51986;52.788;41.368;2023-10-08T12:18:14;32.00;27.00;21.50
65383;PMS5003;51986;52.788;41.368;2023-10-08T12:20:41;32.00;27.00;23.00
65383;PMS5003;51986;52.788;41.368;2023-10-08T12:23:09;32.00;27.00;23.00
65383;PMS5003;51986;52.788;41.368;2023-10-08T12:25:37;31.50;27.00;22.00
65383;PMS5003;51986;52.788;41.368;2023-10-08T12:28:04;31.50;27.50;23.00
65383;PMS5003;51986;52.788;41.368;2023-10-08T12:30:32;31.00;27.00;23.00
65383;PMS5003;51986;52.788;41.368;2023-10-08T12:33:01;31.00;27.00;22.00
65383;PMS5003;51986;52.788;41.368;2023-10-08T12:35:29;32.00;27.00;23.00
65383;PMS5003;51986;52.788;41.368;2023-10-08T12:37:56;33.00;28.00;23.00
65383;PMS5003;51986;52.788;41.368;2023-10-08T12:40:24;32.00;27.00;22.00
65383;PMS5003;51986;52.788;41.368;2023-10-08T12:42:51;31.00;26.00;21.00
65383;PMS5003;51986;52.788;41.368;2023-10-08T12:45:18;31.00;26.00;21.75
65383;PMS5003;51986;52.788;41.368;2023-10-08T12:47:50;32.00;27.00;22.00
65383;PMS5003;51986;52.788;41.368;2023-10-08T12:50:19;32.00;28.00;23.00
65383;PMS5003;51986;52.788;41.368;2023-10-08T12:52:47;32.00;27.00;22.00
65383;PMS5003;51986;52.788;41.368;2023-10-08T12:55:14;32.00;28.00;22.75
65383;PMS5003;51986;52.788;41.368;2023-10-08T12:57:41;31.00;27.00;22.00
65383;PMS5003;51986;52.788;41.368;2023-10-08T13:00:10;31.00;27.00;22.00
65383;PMS5003;51986;52.788;41.368;2023-10-08T13:02:38;31.00;27.00;21.00
65383;PMS5003;51986;52.788;41.368;2023-10-08T13:05:05;30.00;26.00;21.00
65383;PMS5003;51986;52.788;41.368;2023-10-08T13:07:32;30.50;27.00;22.00
65383;PMS5003;51986;52.788;41.368;2023-10-08T13:10:00;30.00;26.00;22.00
65383;PMS5003;51986;52.788;41.368;2023-10-08T13:12:28;30.75;26.00;22.00
65383;PMS5003;51986;52.788;41.368;2023-10-08T13:14:56;29.00;26.00;21.00
65383;PMS5003;51986;52.788;41.368;2023-10-08T13:17:23;29.50;26.00;21.00
65383;PMS5003;51986;52.788;41.368;2023-10-08T13:19:51;30.00;26.00;21.00
65383;PMS5003;51986;52.788;41.368;2023-10-08T13:22:18;29.00;26.00;21.00
65383;PMS5003;51986;52.788;41.368;2023-10-08T13:24:45;29.00;25.00;21.00
65383;PMS5003;51986;52.788;41.368;2023-10-08T13:27:12;29.00;26.00;21.00
65383;PMS5003;51986;52.788;41.368;2023-10-08T13:29:41;29.00;25.00;21.00
65383;PMS5003;51986;52.788;41.368;2023-10-08T13:32:08;30.00;26.00;21.00
65383;PMS5003;51986;52.788;41.368;2023-10-08T13:34:36;28.50;24.00;21.00
65383;PMS5003;51986;52.788;41.368;2023-10-08T13:37:04;27.00;24.00;20.00
65383;PMS5003;51986;52.788;41.368;2023-10-08T13:39:31;28.00;24.00;20.00
65383;PMS5003;51986;52.788;41.368;2023-10-08T13:41:59;28.00;24.00;20.00
65383;PMS5003;51986;52.788;41.368;2023-10-08T13:44:26;29.75;26.00;21.00
65383;PMS5003;51986;52.788;41.368;2023-10-08T13:46:56;30.00;26.00;21.00